Time;durP1;ratioP1;P1;durP2;ratioP2;P2;SDS_P1;SDS_P2;PMS_P1;PMS_P2;Temp;Humidity;BMP_temperature;BMP_pressure;BME280_temperature;BME280_humidity;BME280_pressure;Samples;Min_cycle;Max_cycle;Signal;HPM_P1;HPM_P2
2023/01/29 00:02:07;;;;;;;2.20;1.30;;;2.90;99.90;;;;;;5053710;28;20472;-60
2023/01/29 00:04:34;;;;;;;1.70;1.10;;;3.10;99.90;;;;;;5053054;28;20725;-60
2023/01/29 00:07:01;;;;;;;2.40;1.40;;;2.80;99.90;;;;;;5050985;28;20789;-59
2023/01/29 00:09:30;;;;;;;2.10;1.20;;;2.60;99.90;;;;;;5051351;28;20437;-59
2023/01/29 00:11:58;;;;;;;3.13;1.30;;;2.50;99.90;;;;;;5051161;28;20425;-60
2023/01/29 00:14:26;;;;;;;1.85;1.20;;;2.60;99.90;;;;;;5051870;28;20457;-60
2023/01/29 00:16:54;;;;;;;2.80;1.20;;;2.70;99.90;;;;;;5052865;28;20459;-59
2023/01/29 00:19:22;;;;;;;2.30;1.40;;;2.70;99.90;;;;;;5052929;28;20476;-60
2023/01/29 00:21:49;;;;;;;2.45;1.40;;;2.80;99.90;;;;;;5054061;28;20512;-60
2023/01/29 00:24:16;;;;;;;2.90;1.40;;;2.80;99.90;;;;;;5053667;28;20421;-60
2023/01/29 00:26:44;;;;;;;2.95;1.30;;;2.90;99.90;;;;;;5054275;28;20797;-59
2023/01/29 00:29:11;;;;;;;3.10;1.30;;;2.80;99.90;;;;;;5053973;28;20425;-60
2023/01/29 00:31:38;;;;;;;3.70;1.50;;;2.40;99.90;;;;;;5054319;28;20858;-59
2023/01/29 00:34:07;;;;;;;1.98;1.30;;;2.40;99.90;;;;;;5053461;28;20876;-59
2023/01/29 00:36:34;;;;;;;2.28;1.30;;;2.40;99.90;;;;;;5054051;28;20732;-59
2023/01/29 00:39:09;;;;;;;3.42;1.30;;;2.10;99.90;;;;;;5054461;28;20413;-59
2023/01/29 00:47:29;;;;;;;2.70;1.20;;;2.10;99.90;;;;;;5057486;28;20449;-59
2023/01/29 00:49:56;;;;;;;2.25;1.25;;;2.60;99.90;;;;;;5057580;28;20414;-60
2023/01/29 00:52:24;;;;;;;2.53;1.30;;;2.60;99.90;;;;;;5057397;28;20841;-59
2023/01/29 00:54:51;;;;;;;2.42;1.42;;;2.30;99.90;;;;;;5057497;28;20421;-59
2023/01/29 00:57:18;;;;;;;1.80;1.20;;;2.50;99.90;;;;;;5057744;28;20863;-59
2023/01/29 00:59:45;;;;;;;2.30;1.40;;;2.40;99.90;;;;;;5057334;28;20439;-60
2023/01/29 01:05:01;;;;;;;1.90;1.30;;;2.70;99.90;;;;;;5057008;28;20408;-60
2023/01/29 01:07:28;;;;;;;1.80;1.30;;;2.80;99.90;;;;;;5057046;28;20840;-60
2023/01/29 01:12:40;;;;;;;1.63;1.10;;;3.20;99.90;;;;;;5054846;28;20412;-60
2023/01/29 01:15:08;;;;;;;2.17;1.13;;;3.30;99.90;;;;;;5054990;28;20716;-60
2023/01/29 01:17:35;;;;;;;2.67;1.42;;;3.10;99.90;;;;;;5055234;28;20432;-60
2023/01/29 01:20:05;;;;;;;1.92;1.20;;;3.00;99.90;;;;;;5054890;28;20715;-60
2023/01/29 01:22:32;;;;;;;2.58;1.20;;;2.80;99.90;;;;;;5055468;28;20805;-59
2023/01/29 01:24:59;;;;;;;2.88;1.40;;;2.60;99.90;;;;;;5055494;28;20512;-59
2023/01/29 01:27:26;;;;;;;2.15;1.30;;;2.70;99.90;;;;;;5055967;28;20451;-59
2023/01/29 01:29:54;;;;;;;2.50;1.30;;;2.80;99.90;;;;;;5056382;28;20529;-59
2023/01/29 01:32:21;;;;;;;1.90;1.40;;;3.00;99.90;;;;;;5056813;28;20698;-60
2023/01/29 01:34:48;;;;;;;3.15;1.33;;;2.60;99.90;;;;;;5056391;28;20426;-60
2023/01/29 01:37:17;;;;;;;2.57;1.20;;;1.90;99.90;;;;;;5057299;28;20429;-60
2023/01/29 01:39:49;;;;;;;2.80;1.50;;;1.60;99.90;;;;;;5056842;28;20429;-60
2023/01/29 01:42:16;;;;;;;2.40;1.30;;;1.90;99.90;;;;;;5056874;28;20524;-60
2023/01/29 01:44:54;;;;;;;2.25;1.50;;;2.00;99.90;;;;;;5056254;28;20421;-60
2023/01/29 01:47:27;;;;;;;3.30;1.30;;;2.20;99.90;;;;;;5056992;28;20472;-59
2023/01/29 01:49:56;;;;;;;2.85;1.60;;;2.00;99.90;;;;;;5056618;28;20418;-59
2023/01/29 01:52:24;;;;;;;2.30;1.30;;;1.90;99.90;;;;;;5055793;28;20523;-59
2023/01/29 01:54:52;;;;;;;2.03;1.30;;;1.90;99.90;;;;;;5056536;28;20427;-59
2023/01/29 01:57:25;;;;;;;1.70;1.30;;;2.00;99.90;;;;;;5056453;28;20535;-60
2023/01/29 01:59:58;;;;;;;2.08;1.25;;;2.10;99.90;;;;;;5056175;28;20440;-60
2023/01/29 02:10:46;;;;;;;1.90;1.30;;;3.10;99.90;;;;;;5055821;28;20416;-60
2023/01/29 02:13:17;;;;;;;2.67;1.30;;;3.20;99.90;;;;;;5055975;28;20840;-60
2023/01/29 02:15:45;;;;;;;1.40;1.10;;;3.10;99.90;;;;;;5055591;28;20898;-59
2023/01/29 02:18:14;;;;;;;1.50;1.15;;;3.20;99.90;;;;;;5055580;28;20516;-59
2023/01/29 02:20:44;;;;;;;1.98;1.30;;;2.90;99.90;;;;;;5054347;28;20432;-58
2023/01/29 02:23:34;;;;;;;2.30;1.20;;;2.60;99.90;;;;;;5053968;28;20487;-58
2023/01/29 02:26:24;;;;;;;2.50;1.30;;;2.50;99.90;;;;;;5052500;28;20433;-59
2023/01/29 02:29:21;;;;;;;2.60;1.10;;;2.70;99.90;;;;;;5054540;28;20508;-59
2023/01/29 02:31:52;;;;;;;1.70;1.00;;;2.50;99.90;;;;;;5054121;28;20417;-59
2023/01/29 02:34:26;;;;;;;3.05;1.20;;;2.10;99.90;;;;;;5055232;28;20499;-58
2023/01/29 02:37:01;;;;;;;2.28;1.10;;;2.10;99.90;;;;;;5054494;28;20432;-59
2023/01/29 02:39:34;;;;;;;1.88;1.10;;;2.50;99.90;;;;;;5055649;28;20555;-59
2023/01/29 02:42:10;;;;;;;1.50;1.00;;;2.80;99.90;;;;;;5054943;28;20437;-59
2023/01/29 02:44:42;;;;;;;1.80;1.10;;;2.80;99.90;;;;;;5054398;28;20425;-59
2023/01/29 02:47:16;;;;;;;1.88;1.20;;;2.80;99.90;;;;;;5055203;28;20440;-60
2023/01/29 02:49:48;;;;;;;2.10;1.20;;;2.80;99.90;;;;;;5054743;28;20500;-59
2023/01/29 02:52:21;;;;;;;1.70;1.10;;;2.70;99.90;;;;;;5055365;28;20737;-59
2023/01/29 02:54:55;;;;;;;2.20;1.00;;;2.70;99.90;;;;;;5055306;28;20421;-59
2023/01/29 02:57:27;;;;;;;2.20;1.10;;;2.70;99.90;;;;;;5055387;28;20504;-60
2023/01/29 03:00:00;;;;;;;2.30;1.40;;;2.90;99.90;;;;;;5055486;28;20475;-58
2023/01/29 03:02:33;;;;;;;1.70;1.20;;;2.90;99.90;;;;;;5055293;28;20433;-60
2023/01/29 03:05:06;;;;;;;2.00;1.30;;;2.90;99.90;;;;;;5053926;28;20427;-59
2023/01/29 03:07:43;;;;;;;2.20;1.20;;;3.00;99.90;;;;;;5054696;28;20460;-59
2023/01/29 03:10:17;;;;;;;1.70;1.15;;;3.00;99.90;;;;;;5053472;28;20700;-60
2023/01/29 03:12:46;;;;;;;1.70;1.20;;;2.60;99.90;;;;;;5054638;28;20433;-59
2023/01/29 03:15:23;;;;;;;1.85;1.20;;;2.50;99.90;;;;;;5054769;28;20428;-59
2023/01/29 03:17:55;;;;;;;2.00;1.27;;;2.50;99.90;;;;;;5055162;28;20491;-58
2023/01/29 03:20:30;;;;;;;1.80;1.20;;;2.30;99.90;;;;;;5054941;28;20433;-59
2023/01/29 03:23:02;;;;;;;1.73;1.10;;;2.10;99.90;;;;;;5055048;28;20425;-59
2023/01/29 03:34:00;;;;;;;2.38;1.20;;;2.30;99.90;;;;;;5052707;28;20458;-60
2023/01/29 03:36:36;;;;;;;2.50;1.10;;;2.50;99.90;;;;;;5053480;28;20864;-60
2023/01/29 03:39:05;;;;;;;2.03;1.10;;;2.40;99.90;;;;;;5054114;28;20483;-59
2023/01/29 03:41:36;;;;;;;1.80;1.20;;;2.40;99.90;;;;;;5054297;28;20870;-59
2023/01/29 03:44:12;;;;;;;1.95;1.20;;;2.60;99.90;;;;;;5054487;28;20468;-59
2023/01/29 03:46:48;;;;;;;1.60;1.10;;;2.50;99.90;;;;;;5054290;28;20789;-59
2023/01/29 03:49:22;;;;;;;1.80;1.10;;;2.40;99.90;;;;;;5053770;28;20845;-59
2023/01/29 03:51:58;;;;;;;1.80;1.25;;;2.20;99.90;;;;;;5054610;28;20464;-59
2023/01/29 03:54:34;;;;;;;2.05;1.20;;;2.30;99.90;;;;;;5054350;28;20445;-59
2023/01/29 03:57:14;;;;;;;2.65;1.30;;;2.40;99.90;;;;;;5055101;28;20429;-60
2023/01/29 03:59:49;;;;;;;2.25;1.30;;;2.50;99.90;;;;;;5054427;28;20421;-59
2023/01/29 04:02:26;;;;;;;3.07;1.50;;;2.30;99.90;;;;;;5054363;28;20437;-59
2023/01/29 04:04:58;;;;;;;1.90;1.20;;;2.00;99.90;;;;;;5054462;28;20433;-59
2023/01/29 04:07:26;;;;;;;1.80;1.20;;;2.00;99.90;;;;;;5054716;28;20433;-59
2023/01/29 04:09:58;;;;;;;2.17;1.40;;;2.30;99.90;;;;;;5053316;28;20427;-60
2023/01/29 04:12:29;;;;;;;2.20;1.30;;;2.30;99.90;;;;;;5054231;28;20736;-59
2023/01/29 04:14:58;;;;;;;1.80;1.20;;;2.20;99.90;;;;;;5054897;28;20443;-59
2023/01/29 04:17:31;;;;;;;1.80;1.20;;;2.10;99.90;;;;;;5058161;28;20429;-58
2023/01/29 04:20:00;;;;;;;2.10;1.20;;;2.10;99.90;;;;;;5058694;28;20825;-60
2023/01/29 04:22:31;;;;;;;2.45;1.20;;;1.90;99.90;;;;;;5058198;28;20440;-59
2023/01/29 04:25:01;;;;;;;2.08;1.30;;;1.90;99.90;;;;;;5058183;28;20507;-59
2023/01/29 04:27:42;;;;;;;2.30;1.30;;;1.80;99.90;;;;;;5058347;28;20429;-59
2023/01/29 04:30:22;;;;;;;2.28;1.20;;;1.60;99.90;;;;;;5057531;28;20447;-59
2023/01/29 04:33:03;;;;;;;1.85;1.20;;;1.30;99.90;;;;;;5058015;28;20507;-59
2023/01/29 04:35:37;;;;;;;2.83;1.50;;;1.10;99.90;;;;;;5058211;28;20418;-58
2023/01/29 04:38:12;;;;;;;3.28;1.20;;;1.20;99.90;;;;;;5057344;28;20417;-59
2023/01/29 04:40:49;;;;;;;2.40;1.20;;;1.20;99.90;;;;;;5057084;28;20441;-58
2023/01/29 04:43:25;;;;;;;1.98;1.10;;;1.30;99.90;;;;;;5057849;28;20500;-58
2023/01/29 04:46:07;;;;;;;1.95;1.30;;;1.50;99.90;;;;;;5056247;28;20508;-58
2023/01/29 04:48:48;;;;;;;2.10;1.40;;;1.70;99.90;;;;;;5056797;28;20459;-58
2023/01/29 04:51:24;;;;;;;2.28;1.30;;;1.90;99.90;;;;;;5057471;28;20504;-58
2023/01/29 04:53:58;;;;;;;1.93;1.13;;;1.80;99.90;;;;;;5057496;28;20431;-58
2023/01/29 04:56:32;;;;;;;2.60;1.20;;;1.60;99.90;;;;;;5056950;28;21132;-59
2023/01/29 04:59:04;;;;;;;2.17;1.27;;;1.80;99.90;;;;;;5057144;28;20607;-59
2023/01/29 05:01:33;;;;;;;2.13;1.20;;;2.10;99.90;;;;;;5055647;28;20437;-59
2023/01/29 05:04:05;;;;;;;1.58;1.10;;;2.40;99.90;;;;;;5056332;28;20421;-60
2023/01/29 05:06:33;;;;;;;2.50;1.30;;;2.50;99.90;;;;;;5055748;28;20524;-60
2023/01/29 05:09:01;;;;;;;1.85;1.20;;;2.40;99.90;;;;;;5056087;28;20507;-60
2023/01/29 05:11:32;;;;;;;1.70;1.10;;;2.10;99.90;;;;;;5055842;28;20457;-60
2023/01/29 05:14:01;;;;;;;3.27;1.30;;;2.10;99.90;;;;;;5056039;28;20469;-59
2023/01/29 05:16:40;;;;;;;2.35;1.30;;;2.30;99.90;;;;;;5057396;28;20791;-60
2023/01/29 05:19:10;;;;;;;2.00;1.20;;;2.60;99.90;;;;;;5057473;28;20422;-59
2023/01/29 05:21:37;;;;;;;1.95;1.20;;;2.70;99.90;;;;;;5057488;28;20443;-60
2023/01/29 05:24:10;;;;;;;2.00;1.35;;;2.90;99.90;;;;;;5057647;28;20488;-59
2023/01/29 05:29:22;;;;;;;1.90;1.30;;;2.70;99.90;;;;;;5056658;28;20407;-60
2023/01/29 05:31:49;;;;;;;1.85;1.20;;;2.60;99.90;;;;;;5056735;28;20427;-59
2023/01/29 05:34:18;;;;;;;1.60;1.25;;;2.50;99.90;;;;;;5056820;28;20427;-59
2023/01/29 05:36:45;;;;;;;1.70;1.30;;;2.50;99.90;;;;;;5057036;28;20516;-60
2023/01/29 05:39:12;;;;;;;2.13;1.20;;;2.50;99.90;;;;;;5056740;28;20428;-59
2023/01/29 05:41:39;;;;;;;1.90;1.20;;;2.30;99.90;;;;;;5057125;28;20531;-59
2023/01/29 05:44:06;;;;;;;3.50;1.20;;;2.20;99.90;;;;;;5056881;28;20517;-59
2023/01/29 05:46:34;;;;;;;2.00;1.17;;;2.20;99.90;;;;;;5056941;28;20433;-59
2023/01/29 05:49:01;;;;;;;1.50;1.00;;;2.20;99.90;;;;;;5056577;28;20485;-59
2023/01/29 05:51:29;;;;;;;1.80;1.20;;;2.20;99.90;;;;;;5056438;28;20429;-60
2023/01/29 05:53:57;;;;;;;2.00;1.30;;;2.00;99.90;;;;;;5056556;28;20527;-60
2023/01/29 05:56:24;;;;;;;2.30;1.40;;;1.80;99.90;;;;;;5056527;28;20516;-60
2023/01/29 05:58:51;;;;;;;2.10;1.30;;;1.90;99.90;;;;;;5056393;28;20507;-60
2023/01/29 06:01:20;;;;;;;2.55;1.20;;;1.90;99.90;;;;;;5056410;28;20528;-59
2023/01/29 06:03:48;;;;;;;1.67;1.20;;;2.00;99.90;;;;;;5056467;28;20421;-60
2023/01/29 06:06:15;;;;;;;1.52;1.10;;;1.80;99.90;;;;;;5056357;28;20425;-59
2023/01/29 06:08:43;;;;;;;1.70;1.10;;;1.90;99.90;;;;;;5056376;28;20435;-60
2023/01/29 06:11:13;;;;;;;1.70;1.10;;;1.90;99.90;;;;;;5055974;28;20915;-59
2023/01/29 06:13:40;;;;;;;2.60;1.40;;;1.70;99.90;;;;;;5056082;28;20421;-59
2023/01/29 06:16:08;;;;;;;2.60;1.20;;;1.50;99.90;;;;;;5056353;28;20439;-59
2023/01/29 06:18:36;;;;;;;2.28;1.40;;;1.60;99.90;;;;;;5056411;28;20725;-59
2023/01/29 06:21:04;;;;;;;2.27;1.10;;;1.60;99.90;;;;;;5056021;28;20451;-59
2023/01/29 06:23:32;;;;;;;2.30;1.20;;;1.50;99.90;;;;;;5055991;28;20516;-59
2023/01/29 06:26:02;;;;;;;2.20;1.20;;;1.50;99.90;;;;;;5055565;28;20425;-59
2023/01/29 06:28:30;;;;;;;2.10;1.20;;;1.60;99.90;;;;;;5055628;28;20418;-60
2023/01/29 06:30:58;;;;;;;3.30;1.40;;;2.00;99.90;;;;;;5055702;28;20429;-59
2023/01/29 06:33:26;;;;;;;1.40;1.20;;;2.10;99.90;;;;;;5055992;28;20413;-59
2023/01/29 06:35:57;;;;;;;1.92;1.20;;;1.90;99.90;;;;;;5055510;28;20777;-60
2023/01/29 06:38:25;;;;;;;2.50;1.20;;;1.90;99.90;;;;;;5055550;28;20417;-59
2023/01/29 06:40:52;;;;;;;1.77;1.20;;;2.20;99.90;;;;;;5055149;28;20426;-59
2023/01/29 06:43:22;;;;;;;1.52;1.00;;;2.50;99.90;;;;;;5055414;28;20524;-59
2023/01/29 06:45:50;;;;;;;2.30;1.40;;;2.70;99.90;;;;;;5054994;28;20417;-59
2023/01/29 06:48:18;;;;;;;2.20;1.30;;;2.40;99.90;;;;;;5055619;28;20432;-59
2023/01/29 06:50:45;;;;;;;2.35;1.33;;;1.80;99.90;;;;;;5055208;28;20507;-59
2023/01/29 06:53:13;;;;;;;2.00;1.30;;;1.80;99.90;;;;;;5055655;28;20431;-58
2023/01/29 06:55:40;;;;;;;1.60;1.10;;;1.60;99.90;;;;;;5055307;28;20495;-59
2023/01/29 06:58:07;;;;;;;2.70;1.20;;;1.50;99.90;;;;;;5055127;28;20417;-59
2023/01/29 07:00:36;;;;;;;3.20;1.40;;;1.40;99.90;;;;;;5055053;28;20510;-59
2023/01/29 07:03:05;;;;;;;3.20;1.30;;;1.30;99.90;;;;;;5055123;28;20469;-58
2023/01/29 07:05:32;;;;;;;2.10;1.20;;;1.40;99.90;;;;;;5054540;28;20425;-59
2023/01/29 07:07:59;;;;;;;2.00;1.50;;;1.30;99.90;;;;;;5055065;28;20519;-58
2023/01/29 07:10:26;;;;;;;2.30;1.20;;;1.30;99.90;;;;;;5054002;28;20421;-59
2023/01/29 07:12:53;;;;;;;2.00;1.40;;;1.50;99.90;;;;;;5053942;28;20435;-60
2023/01/29 07:15:21;;;;;;;2.13;1.30;;;1.90;99.90;;;;;;5054710;28;20462;-59
2023/01/29 07:18:00;;;;;;;2.10;1.30;;;2.10;99.90;;;;;;5054035;28;20429;-58
2023/01/29 07:20:29;;;;;;;2.10;1.30;;;2.30;99.90;;;;;;5053095;28;20475;-60
2023/01/29 07:22:57;;;;;;;2.20;1.50;;;2.10;99.90;;;;;;5053979;28;20570;-59
2023/01/29 07:25:25;;;;;;;1.90;1.30;;;1.70;99.90;;;;;;5061797;28;20427;-60
2023/01/29 07:27:52;;;;;;;2.00;1.40;;;1.60;99.90;;;;;;5054745;28;20516;-59
2023/01/29 07:30:20;;;;;;;3.08;1.60;;;1.70;99.90;;;;;;5053490;28;20421;-59
2023/01/29 07:32:47;;;;;;;1.90;1.20;;;1.80;99.90;;;;;;5054001;28;20426;-60
2023/01/29 07:35:16;;;;;;;3.00;1.50;;;1.80;99.90;;;;;;5054921;28;20720;-59
2023/01/29 07:37:43;;;;;;;2.38;1.45;;;1.80;99.90;;;;;;5055051;28;20435;-58
2023/01/29 07:40:11;;;;;;;2.50;1.40;;;2.10;99.90;;;;;;5054873;28;20425;-59
2023/01/29 07:42:42;;;;;;;2.42;1.48;;;2.20;99.90;;;;;;5053630;28;20437;-59
2023/01/29 07:45:11;;;;;;;2.90;1.40;;;2.30;99.90;;;;;;5053574;28;20482;-61
2023/01/29 07:47:38;;;;;;;2.25;1.40;;;2.40;99.90;;;;;;5054918;28;20427;-63
2023/01/29 07:50:06;;;;;;;2.67;1.60;;;2.40;99.90;;;;;;5055447;28;20729;-59
2023/01/29 07:52:35;;;;;;;2.10;1.50;;;2.00;99.90;;;;;;5058877;28;20435;-59
2023/01/29 07:55:03;;;;;;;2.58;1.38;;;1.90;99.90;;;;;;5058254;28;20421;-58
2023/01/29 07:57:30;;;;;;;2.58;1.30;;;2.10;99.90;;;;;;5058610;28;20435;-59
2023/01/29 07:59:57;;;;;;;2.10;1.33;;;2.40;99.90;;;;;;5058513;28;20421;-59
2023/01/29 08:02:24;;;;;;;2.15;1.60;;;2.60;99.90;;;;;;5057698;28;20441;-59
2023/01/29 08:04:52;;;;;;;2.40;1.50;;;2.40;99.90;;;;;;5057825;28;20725;-60
2023/01/29 08:07:19;;;;;;;2.28;1.20;;;2.30;99.90;;;;;;5058469;28;20480;-60
2023/01/29 08:09:47;;;;;;;2.50;1.30;;;2.60;99.90;;;;;;5058359;28;20424;-61
2023/01/29 08:12:14;;;;;;;2.60;1.30;;;2.80;99.90;;;;;;5058017;28;20725;-61
2023/01/29 08:14:42;;;;;;;3.20;1.48;;;2.90;99.90;;;;;;5058315;28;20730;-59
2023/01/29 08:17:09;;;;;;;2.70;1.20;;;3.10;99.90;;;;;;5057876;28;21004;-60
2023/01/29 08:19:36;;;;;;;2.60;1.70;;;2.90;99.90;;;;;;5057916;28;20896;-60
2023/01/29 08:22:04;;;;;;;2.00;1.40;;;2.60;99.90;;;;;;5058346;28;20487;-60
2023/01/29 08:24:31;;;;;;;2.70;1.40;;;2.60;99.90;;;;;;5058048;28;20500;-60
2023/01/29 08:27:00;;;;;;;2.20;1.30;;;2.60;99.90;;;;;;5058475;28;20554;-60
2023/01/29 08:29:27;;;;;;;2.70;1.30;;;2.70;99.90;;;;;;5057163;28;20545;-61
2023/01/29 08:31:54;;;;;;;2.60;1.50;;;3.00;99.90;;;;;;5058300;28;20949;-62
2023/01/29 08:34:21;;;;;;;2.53;1.60;;;3.10;99.90;;;;;;5058018;28;20422;-61
2023/01/29 08:36:48;;;;;;;3.13;1.70;;;3.20;99.90;;;;;;5058152;28;20955;-60
2023/01/29 08:39:15;;;;;;;2.60;1.40;;;3.20;99.90;;;;;;5057650;28;20477;-60
2023/01/29 08:41:43;;;;;;;2.83;1.77;;;3.20;99.90;;;;;;5057723;28;20516;-59
2023/01/29 08:44:11;;;;;;;2.40;1.60;;;3.10;99.90;;;;;;5057314;28;20425;-60
2023/01/29 08:46:39;;;;;;;3.13;1.73;;;2.80;99.90;;;;;;5057926;28;20429;-60
2023/01/29 08:49:07;;;;;;;2.92;1.77;;;2.70;99.90;;;;;;5056055;28;20724;-60
2023/01/29 08:51:34;;;;;;;2.05;1.40;;;2.40;99.90;;;;;;5057412;28;20440;-60
2023/01/29 08:54:01;;;;;;;2.80;1.70;;;2.20;99.90;;;;;;5057009;28;20855;-60
2023/01/29 08:56:28;;;;;;;2.42;1.50;;;2.20;99.90;;;;;;5058016;28;20431;-60
2023/01/29 08:58:56;;;;;;;3.50;1.50;;;2.50;99.90;;;;;;5056109;28;20515;-59
2023/01/29 09:01:24;;;;;;;2.53;1.75;;;2.80;99.90;;;;;;5054935;28;20428;-59
2023/01/29 09:03:51;;;;;;;3.37;1.73;;;2.90;99.90;;;;;;5055369;28;20523;-60
2023/01/29 09:06:19;;;;;;;2.97;1.70;;;2.70;99.90;;;;;;5055625;28;20532;-60
2023/01/29 09:08:46;;;;;;;4.00;1.90;;;2.10;99.90;;;;;;5054323;28;20431;-59
2023/01/29 09:11:13;;;;;;;2.40;1.70;;;1.80;99.90;;;;;;5055226;28;20528;-60
2023/01/29 09:13:41;;;;;;;2.47;1.50;;;1.70;99.90;;;;;;5054717;28;20413;-61
2023/01/29 09:16:09;;;;;;;2.50;1.40;;;2.10;99.90;;;;;;5054449;28;20429;-60
2023/01/29 09:18:38;;;;;;;2.70;1.70;;;2.40;99.90;;;;;;5054363;28;20424;-60
2023/01/29 09:21:05;;;;;;;3.03;1.60;;;2.70;99.90;;;;;;5054255;28;20451;-60
2023/01/29 09:23:33;;;;;;;3.10;1.70;;;2.80;99.90;;;;;;5055119;28;20704;-60
2023/01/29 09:26:00;;;;;;;2.40;1.45;;;2.80;99.90;;;;;;5054786;28;20435;-60
2023/01/29 09:28:28;;;;;;;2.33;1.70;;;2.60;99.90;;;;;;5054938;28;20898;-59
2023/01/29 09:30:55;;;;;;;2.50;1.50;;;2.40;99.90;;;;;;5055793;28;20783;-60
2023/01/29 09:33:23;;;;;;;3.80;1.95;;;2.40;99.90;;;;;;5054838;28;20420;-60
2023/01/29 09:35:52;;;;;;;2.63;1.50;;;2.40;99.90;;;;;;5055443;28;20867;-60
2023/01/29 09:38:19;;;;;;;2.13;1.40;;;2.50;99.90;;;;;;5055577;28;20540;-60
2023/01/29 09:40:55;;;;;;;2.72;1.60;;;2.50;99.90;;;;;;5055874;28;20508;-61
2023/01/29 09:43:27;;;;;;;2.35;1.50;;;2.70;99.90;;;;;;5054464;28;20564;-60
2023/01/29 09:46:00;;;;;;;2.63;1.80;;;3.10;99.90;;;;;;5054593;28;20432;-59
2023/01/29 09:48:32;;;;;;;2.33;1.52;;;3.00;99.90;;;;;;5054096;28;20431;-61
2023/01/29 09:51:06;;;;;;;3.20;2.00;;;2.80;99.90;;;;;;5054532;28;20512;-61
2023/01/29 09:53:40;;;;;;;3.00;1.70;;;2.70;99.90;;;;;;5054154;28;20428;-59
2023/01/29 09:56:13;;;;;;;2.60;1.90;;;2.30;99.90;;;;;;5055372;28;20460;-59
2023/01/29 09:58:42;;;;;;;2.70;2.00;;;2.30;99.90;;;;;;5052161;28;20508;-59
2023/01/29 10:01:15;;;;;;;3.00;1.98;;;2.40;99.90;;;;;;5052445;28;20440;-60
2023/01/29 10:04:04;;;;;;;3.45;2.30;;;2.30;99.90;;;;;;5053431;28;20433;-59
2023/01/29 10:06:51;;;;;;;2.90;2.17;;;2.20;99.90;;;;;;5048639;28;20441;-60
2023/01/29 10:09:49;;;;;;;3.60;2.30;;;2.20;99.90;;;;;;5052161;28;20829;-59
2023/01/29 10:12:32;;;;;;;3.05;2.22;;;2.20;99.90;;;;;;5041585;28;20428;-60
2023/01/29 10:15:13;;;;;;;3.00;2.30;;;2.10;99.90;;;;;;5054233;28;20421;-60
2023/01/29 10:18:00;;;;;;;2.75;2.45;;;2.30;99.90;;;;;;5052568;28;20508;-60
2023/01/29 10:20:40;;;;;;;2.60;1.70;;;2.70;99.90;;;;;;5052856;28;20421;-59
2023/01/29 10:23:18;;;;;;;4.10;2.08;;;3.10;99.90;;;;;;5052627;28;20816;-60
2023/01/29 10:25:47;;;;;;;3.10;2.00;;;3.20;99.90;;;;;;5052998;28;20435;-60
2023/01/29 10:28:19;;;;;;;2.33;1.70;;;2.90;99.90;;;;;;5052834;28;20500;-60
2023/01/29 10:30:49;;;;;;;2.90;2.40;;;3.30;99.90;;;;;;5052896;28;20912;-60
2023/01/29 10:33:25;;;;;;;2.97;2.00;;;3.70;99.90;;;;;;5053547;28;20748;-59
2023/01/29 10:35:56;;;;;;;4.03;2.13;;;3.50;99.90;;;;;;5053786;28;20436;-60
2023/01/29 10:38:38;;;;;;;4.53;2.30;;;3.20;99.90;;;;;;5053089;28;20421;-60
2023/01/29 10:41:25;;;;;;;3.47;2.00;;;3.00;99.90;;;;;;5052713;28;20440;-59
2023/01/29 10:44:10;;;;;;;3.85;2.50;;;3.00;99.90;;;;;;5053535;28;20441;-60
2023/01/29 10:47:01;;;;;;;3.10;2.80;;;2.60;99.90;;;;;;5054320;28;20512;-60
2023/01/29 10:49:50;;;;;;;3.55;2.05;;;2.50;99.90;;;;;;5050921;28;20508;-60
2023/01/29 10:52:30;;;;;;;3.60;2.55;;;2.40;99.90;;;;;;5052974;28;20524;-61
2023/01/29 10:55:09;;;;;;;3.88;2.42;;;2.50;99.90;;;;;;5054581;28;20431;-60
2023/01/29 10:57:52;;;;;;;4.22;3.55;;;2.50;99.90;;;;;;5054065;28;20434;-60
2023/01/29 11:00:23;;;;;;;4.10;2.57;;;2.60;99.90;;;;;;5054062;28;20521;-60
2023/01/29 11:02:52;;;;;;;3.50;2.47;;;2.40;99.90;;;;;;5053631;28;20464;-60
2023/01/29 11:05:27;;;;;;;2.58;1.92;;;2.40;99.90;;;;;;5054312;28;20425;-60
2023/01/29 11:08:03;;;;;;;3.80;2.20;;;2.50;99.90;;;;;;5054779;28;20805;-60
2023/01/29 11:10:41;;;;;;;3.67;2.13;;;2.50;99.90;;;;;;5054676;28;20461;-59
2023/01/29 11:13:14;;;;;;;3.50;2.20;;;2.70;99.90;;;;;;5055333;28;20413;-61
2023/01/29 11:15:42;;;;;;;2.90;2.10;;;2.70;99.90;;;;;;5053400;28;20927;-59
2023/01/29 11:18:14;;;;;;;3.60;1.80;;;2.70;99.90;;;;;;5054518;28;20484;-60
2023/01/29 11:20:42;;;;;;;2.72;1.80;;;2.90;99.90;;;;;;5053501;28;20867;-59
2023/01/29 11:23:26;;;;;;;3.22;1.90;;;3.10;99.90;;;;;;5054227;28;20433;-61
2023/01/29 11:25:57;;;;;;;4.22;2.40;;;3.00;99.90;;;;;;5053213;28;20432;-60
2023/01/29 11:28:38;;;;;;;2.92;2.30;;;3.00;99.90;;;;;;5053696;28;21028;-60
2023/01/29 11:31:17;;;;;;;4.13;2.40;;;3.10;99.90;;;;;;5054021;28;20436;-59
2023/01/29 11:33:45;;;;;;;2.80;2.40;;;3.00;99.90;;;;;;5054868;28;20496;-59
2023/01/29 11:36:32;;;;;;;2.67;1.88;;;3.30;99.90;;;;;;5054891;28;20467;-60
2023/01/29 11:39:15;;;;;;;3.13;2.00;;;3.40;99.90;;;;;;5053689;28;20718;-61
2023/01/29 11:41:50;;;;;;;2.60;1.50;;;3.80;99.90;;;;;;5053956;28;20804;-60
2023/01/29 11:44:22;;;;;;;4.30;2.00;;;4.00;99.90;;;;;;5054201;28;20837;-60
2023/01/29 11:46:50;;;;;;;3.00;2.03;;;4.20;99.90;;;;;;5053011;28;20456;-60
2023/01/29 11:49:33;;;;;;;3.60;2.00;;;4.10;99.90;;;;;;5052380;28;20432;-60
2023/01/29 11:52:03;;;;;;;2.97;2.00;;;3.80;99.90;;;;;;5053219;28;20460;-59
2023/01/29 11:54:35;;;;;;;3.95;2.22;;;3.60;99.90;;;;;;5053668;28;20420;-60
2023/01/29 11:57:04;;;;;;;3.28;2.35;;;3.40;99.90;;;;;;5053650;28;20460;-57
2023/01/29 11:59:41;;;;;;;3.17;2.40;;;3.50;99.90;;;;;;5054077;28;20429;-58
2023/01/29 12:02:25;;;;;;;2.70;1.95;;;3.60;99.90;;;;;;5053384;28;20920;-59
2023/01/29 12:04:54;;;;;;;2.85;1.85;;;3.70;99.90;;;;;;5052607;28;20849;-59
2023/01/29 12:07:21;;;;;;;3.13;2.03;;;4.00;99.90;;;;;;5054142;28;20825;-58
2023/01/29 12:09:52;;;;;;;2.08;1.83;;;4.20;99.90;;;;;;5052700;28;20421;-59
2023/01/29 12:12:41;;;;;;;3.60;2.00;;;4.10;99.90;;;;;;5052898;28;20447;-59
2023/01/29 12:15:24;;;;;;;3.47;2.30;;;4.20;99.90;;;;;;5051221;28;20500;-59
2023/01/29 12:17:59;;;;;;;3.30;1.90;;;4.20;99.90;;;;;;5053209;28;20459;-59
2023/01/29 12:20:33;;;;;;;4.32;3.00;;;4.20;99.90;;;;;;5051654;28;20797;-59
2023/01/29 12:23:07;;;;;;;2.88;2.08;;;4.20;99.90;;;;;;5052993;28;20437;-59
2023/01/29 12:25:45;;;;;;;2.90;2.00;;;3.80;99.90;;;;;;5052733;28;20421;-59
2023/01/29 12:28:28;;;;;;;2.50;2.03;;;3.60;99.90;;;;;;5052891;28;20792;-59
2023/01/29 12:31:09;;;;;;;3.15;2.13;;;3.50;99.90;;;;;;5053669;28;20429;-59
2023/01/29 12:33:44;;;;;;;3.13;2.00;;;3.40;99.90;;;;;;5053173;28;20499;-60
2023/01/29 12:36:17;;;;;;;3.22;2.33;;;3.50;99.90;;;;;;5053147;28;20429;-61
2023/01/29 12:38:45;;;;;;;3.30;2.38;;;3.60;99.90;;;;;;5055684;28;20452;-60
2023/01/29 12:41:36;;;;;;;3.88;2.72;;;3.50;99.90;;;;;;5054818;28;20515;-59
2023/01/29 12:44:11;;;;;;;4.68;2.70;;;3.50;99.90;;;;;;5053629;28;20440;-59
2023/01/29 12:46:44;;;;;;;5.20;2.92;;;3.30;99.90;;;;;;5055911;28;20429;-59
2023/01/29 12:49:16;;;;;;;2.80;2.30;;;3.20;99.90;;;;;;5053461;28;20471;-59
2023/01/29 12:51:53;;;;;;;3.53;2.30;;;3.40;99.90;;;;;;5052895;28;20425;-60
2023/01/29 12:54:23;;;;;;;3.45;2.33;;;3.40;99.90;;;;;;5050889;28;20825;-60
2023/01/29 12:56:56;;;;;;;4.47;2.30;;;3.30;99.90;;;;;;5061059;28;20520;-60
2023/01/29 12:59:29;;;;;;;4.20;2.70;;;3.30;99.90;;;;;;5059236;28;20777;-60
2023/01/29 13:02:02;;;;;;;5.18;2.72;;;3.40;99.90;;;;;;5054302;28;20900;-60
2023/01/29 13:04:39;;;;;;;4.87;2.83;;;3.30;99.90;;;;;;5055773;28;20909;-60
2023/01/29 13:07:13;;;;;;;3.13;2.00;;;3.30;99.90;;;;;;5056056;28;20717;-60
2023/01/29 13:09:45;;;;;;;3.20;2.40;;;3.50;99.90;;;;;;5054958;28;20425;-60
2023/01/29 13:12:15;;;;;;;4.40;2.58;;;3.60;99.90;;;;;;5055404;28;20443;-59
2023/01/29 13:14:49;;;;;;;3.85;2.15;;;3.60;99.90;;;;;;5071692;28;20818;-59
2023/01/29 13:17:23;;;;;;;4.68;2.60;;;3.50;99.90;;;;;;5077591;28;20430;-59
2023/01/29 13:19:53;;;;;;;3.27;1.93;;;3.30;99.90;;;;;;5072378;28;20429;-59
2023/01/29 13:22:25;;;;;;;4.03;2.63;;;3.20;99.90;;;;;;5071347;28;20436;-59
2023/01/29 13:24:53;;;;;;;3.33;2.33;;;3.40;99.90;;;;;;5078594;28;20468;-62
2023/01/29 13:27:25;;;;;;;8.37;3.50;;;3.50;99.90;;;;;;5055882;28;20464;-58
2023/01/29 13:29:55;;;;;;;4.25;2.30;;;3.60;99.90;;;;;;5091169;28;20436;-59
2023/01/29 13:32:27;;;;;;;3.78;2.50;;;3.50;99.90;;;;;;5097405;28;20733;-59
2023/01/29 13:34:56;;;;;;;4.20;2.20;;;3.50;99.90;;;;;;5096958;28;20449;-59
2023/01/29 13:37:30;;;;;;;5.15;3.00;;;3.50;99.90;;;;;;5096017;28;20524;-59
2023/01/29 13:39:59;;;;;;;3.33;2.28;;;3.80;99.90;;;;;;5094207;28;20449;-59
2023/01/29 13:42:38;;;;;;;4.10;2.20;;;4.00;99.90;;;;;;5093024;28;20620;-59
2023/01/29 13:45:09;;;;;;;3.47;2.00;;;4.10;99.90;;;;;;5093212;28;20538;-59
2023/01/29 13:47:39;;;;;;;3.63;2.40;;;4.40;99.90;;;;;;5091219;28;20487;-59
2023/01/29 13:50:09;;;;;;;3.33;1.95;;;4.40;99.90;;;;;;5094200;28;20715;-59
2023/01/29 13:52:42;;;;;;;4.03;2.28;;;4.40;99.90;;;;;;5095067;28;20456;-59